Hlavní strana
METAR-TAF:

METAR-TAF

Letiště :

Şanlıurfa, Turecko

zeměpisná šířka: 37-27N, zeměpisná délka: 38-54E, výška: 823 m

Aktuální stav počasí

Zpráva byla vytvořena před 30 minutami, v 21:50 UTC
Jihojihozápadní vítr 6 kt
Teplota 21°C
Vlhkost vzduchu 56%
Tlak 1013 hPa
Viditelnost 10 km a více
Žádná oblačnost pod 1500 m, nevyskytují se cumulonimby.

METAR: LTCS 222150Z 21006KT CAVOK 21/12 Q1013 RMK RWY22 23009KT SKC

Čas: 01:20 (22:20 UTC)

Předpověď počasí

Zpráva byla vytvořena před 5 hodinami a 40 minutami, v 16:40 UTC
Předpověď platná od 22 v 18 UTC do 23 v 18 UTC
Západojihozápadní vítr 12 kt
Viditelnost 10 km a více
Žádná oblačnost pod 1500 m, nevyskytují se cumulonimby.
Dočasný
od 22 v 18 UTC do 22 v 22 UTC
Západojihozápadní vítr 15 kt s nárazy do 25 kt
Změna
od 23 v 00 UTC do 23 v 02 UTC
vítr z různých směrů 2 kt
Změna
od 23 v 06 UTC do 23 v 08 UTC
Jihojihozápadní vítr 12 kt

TAF: LTCS 221640Z 2218/2318 24012KT CAVOK TEMPO 2218/2222 24015G25KT BECMG 2300/2302 VRB02KT BECMG 2306/2308 20012KT

Stav a předpovědi počasí z více než 4 000 letišť (zprávy METAR a TAF).

Červené a žluté tečky na mapě představují dostupné meteorologické stanice.

Když kurzor umístíte na tečku, zobrazí se název stanice.

Pak kliknutím zobrazíte stav a předpověď počasí.

Chcete-li změnit mapu, kliknutím na zelené tlačítko se znaménkem +mapu přiblížíte, kliknutím na zelené tlačítko se znaménkem – mapu oddálíte a kliknutím na zelené šipky přejdete na sousední mapy.


METAR-TAF: